sensor_id;sensor_type;location;lat;lon;timestamp;temperature;humidity
8402;DHT22;4238;48.404;9.498;2023-10-13T04:01:49;10.70;17.60
8402;DHT22;4238;48.404;9.498;2023-10-13T04:04:25;10.60;25.70
8402;DHT22;4238;48.404;9.498;2023-10-13T04:07:07;10.50;25.50
8402;DHT22;4238;48.404;9.498;2023-10-13T04:10:00;10.40;27.30
8402;DHT22;4238;48.404;9.498;2023-10-13T04:12:45;10.40;30.90
8402;DHT22;4238;48.404;9.498;2023-10-13T04:15:29;10.50;32.60
8402;DHT22;4238;48.404;9.498;2023-10-13T04:18:10;10.40;34.70
8402;DHT22;4238;48.404;9.498;2023-10-13T04:20:59;10.40;37.70
8402;DHT22;4238;48.404;9.498;2023-10-13T04:23:44;10.30;34.70
8402;DHT22;4238;48.404;9.498;2023-10-13T04:26:25;10.30;32.30
8402;DHT22;4238;48.404;9.498;2023-10-13T04:29:02;10.20;37.30
8402;DHT22;4238;48.404;9.498;2023-10-13T04:31:36;10.20;41.30
8402;DHT22;4238;48.404;9.498;2023-10-13T04:34:27;10.20;42.50
8402;DHT22;4238;48.404;9.498;2023-10-13T04:37:00;10.20;38.20
8402;DHT22;4238;48.404;9.498;2023-10-13T04:39:48;10.10;43.50
8402;DHT22;4238;48.404;9.498;2023-10-13T04:42:22;10.00;46.90
8402;DHT22;4238;48.404;9.498;2023-10-13T04:45:06;10.10;49.50
8402;DHT22;4238;48.404;9.498;2023-10-13T04:47:53;10.10;48.10
8402;DHT22;4238;48.404;9.498;2023-10-13T04:50:40;10.10;46.60
8402;DHT22;4238;48.404;9.498;2023-10-13T04:53:11;10.10;49.00
8402;DHT22;4238;48.404;9.498;2023-10-13T04:55:54;10.10;47.20
8402;DHT22;4238;48.404;9.498;2023-10-13T04:58:34;10.10;46.30
8402;DHT22;4238;48.404;9.498;2023-10-13T05:01:26;10.10;46.10
8402;DHT22;4238;48.404;9.498;2023-10-13T05:04:11;10.10;47.60
8402;DHT22;4238;48.404;9.498;2023-10-13T05:06:57;10.20;45.60
8402;DHT22;4238;48.404;9.498;2023-10-13T05:09:41;10.10;44.80
8402;DHT22;4238;48.404;9.498;2023-10-13T05:12:26;10.40;39.10
8402;DHT22;4238;48.404;9.498;2023-10-13T05:15:10;10.50;33.30
8402;DHT22;4238;48.404;9.498;2023-10-13T05:17:54;10.70;28.90
8402;DHT22;4238;48.404;9.498;2023-10-13T05:20:40;10.80;29.60
8402;DHT22;4238;48.404;9.498;2023-10-13T05:23:26;10.80;28.00
8402;DHT22;4238;48.404;9.498;2023-10-13T05:26:10;10.80;24.10
8402;DHT22;4238;48.404;9.498;2023-10-13T05:28:55;10.80;24.70
8402;DHT22;4238;48.404;9.498;2023-10-13T05:31:39;10.70;24.40
8402;DHT22;4238;48.404;9.498;2023-10-13T05:34:23;10.70;23.40
8402;DHT22;4238;48.404;9.498;2023-10-13T05:37:08;10.60;27.50
8402;DHT22;4238;48.404;9.498;2023-10-13T05:39:54;10.60;29.40
8402;DHT22;4238;48.404;9.498;2023-10-13T05:42:38;10.40;36.40
8402;DHT22;4238;48.404;9.498;2023-10-13T05:45:22;10.40;40.00
8402;DHT22;4238;48.404;9.498;2023-10-13T05:48:02;10.50;43.00
8402;DHT22;4238;48.404;9.498;2023-10-13T05:50:37;10.50;41.10
8402;DHT22;4238;48.404;9.498;2023-10-13T05:53:36;10.50;42.30
8402;DHT22;4238;48.404;9.498;2023-10-13T05:56:21;10.60;42.10
8402;DHT22;4238;48.404;9.498;2023-10-13T05:59:06;10.60;47.10
8402;DHT22;4238;48.404;9.498;2023-10-13T06:01:50;10.60;49.10
8402;DHT22;4238;48.404;9.498;2023-10-13T06:04:34;10.60;45.40
8402;DHT22;4238;48.404;9.498;2023-10-13T06:07:18;10.70;43.30
8402;DHT22;4238;48.404;9.498;2023-10-13T06:10:02;10.80;45.30
8402;DHT22;4238;48.404;9.498;2023-10-13T06:12:49;10.80;41.70
8402;DHT22;4238;48.404;9.498;2023-10-13T06:15:36;10.90;37.10
8402;DHT22;4238;48.404;9.498;2023-10-13T06:18:20;10.90;39.90
8402;DHT22;4238;48.404;9.498;2023-10-13T06:21:04;10.90;31.60
8402;DHT22;4238;48.404;9.498;2023-10-13T06:23:48;11.00;34.90
8402;DHT22;4238;48.404;9.498;2023-10-13T06:26:32;11.00;31.00
8402;DHT22;4238;48.404;9.498;2023-10-13T06:29:18;11.00;32.50
8402;DHT22;4238;48.404;9.498;2023-10-13T06:31:45;11.10;33.70
8402;DHT22;4238;48.404;9.498;2023-10-13T06:34:13;11.20;28.30
8402;DHT22;4238;48.404;9.498;2023-10-13T06:36:41;11.30;24.50
8402;DHT22;4238;48.404;9.498;2023-10-13T06:39:11;11.40;19.00
8402;DHT22;4238;48.404;9.498;2023-10-13T06:42:00;11.60;22.80
8402;DHT22;4238;48.404;9.498;2023-10-13T06:44:30;11.80;8.60
8402;DHT22;4238;48.404;9.498;2023-10-13T06:46:58;12.00;1.00
8402;DHT22;4238;48.404;9.498;2023-10-13T06:49:25;12.20;1.00
8402;DHT22;4238;48.404;9.498;2023-10-13T06:51:54;12.40;1.00
8402;DHT22;4238;48.404;9.498;2023-10-13T06:54:26;12.60;1.00
8402;DHT22;4238;48.404;9.498;2023-10-13T06:56:54;12.90;1.00
8402;DHT22;4238;48.404;9.498;2023-10-13T06:59:21;13.10;1.00
8402;DHT22;4238;48.404;9.498;2023-10-13T07:01:53;13.50;1.00
8402;DHT22;4238;48.404;9.498;2023-10-13T07:04:26;13.70;1.00
8402;DHT22;4238;48.404;9.498;2023-10-13T07:06:53;14.00;1.00
8402;DHT22;4238;48.404;9.498;2023-10-13T07:09:20;14.20;1.00
8402;DHT22;4238;48.404;9.498;2023-10-13T07:12:06;14.30;1.00
8402;DHT22;4238;48.404;9.498;2023-10-13T07:14:45;14.50;1.00
8402;DHT22;4238;48.404;9.498;2023-10-13T07:17:18;14.70;99.90
8402;DHT22;4238;48.404;9.498;2023-10-13T07:19:50;14.70;99.90
8402;DHT22;4238;48.404;9.498;2023-10-13T07:22:21;14.70;1.00
8402;DHT22;4238;48.404;9.498;2023-10-13T07:24:50;14.70;1.00
8402;DHT22;4238;48.404;9.498;2023-10-13T07:27:18;14.70;1.00
8402;DHT22;4238;48.404;9.498;2023-10-13T07:29:50;14.70;1.00
8402;DHT22;4238;48.404;9.498;2023-10-13T07:32:23;14.70;1.00
8402;DHT22;4238;48.404;9.498;2023-10-13T07:34:54;14.70;99.90
8402;DHT22;4238;48.404;9.498;2023-10-13T07:37:22;14.70;1.00
8402;DHT22;4238;48.404;9.498;2023-10-13T07:39:53;14.70;1.00
8402;DHT22;4238;48.404;9.498;2023-10-13T07:42:23;14.70;99.90
8402;DHT22;4238;48.404;9.498;2023-10-13T07:44:57;14.70;1.00
8402;DHT22;4238;48.404;9.498;2023-10-13T07:47:25;14.80;1.00
8402;DHT22;4238;48.404;9.498;2023-10-13T07:49:53;14.90;99.90
8402;DHT22;4238;48.404;9.498;2023-10-13T07:52:22;15.00;99.90
8402;DHT22;4238;48.404;9.498;2023-10-13T07:55:03;15.20;1.00
8402;DHT22;4238;48.404;9.498;2023-10-13T07:57:37;15.40;1.00
8402;DHT22;4238;48.404;9.498;2023-10-13T08:00:19;15.60;1.00
8402;DHT22;4238;48.404;9.498;2023-10-13T08:02:57;15.90;99.90
8402;DHT22;4238;48.404;9.498;2023-10-13T08:05:35;16.00;1.00
8402;DHT22;4238;48.404;9.498;2023-10-13T08:08:21;16.10;59.30
8402;DHT22;4238;48.404;9.498;2023-10-13T08:10:51;16.30;99.90
8402;DHT22;4238;48.404;9.498;2023-10-13T08:13:21;16.50;1.00
8402;DHT22;4238;48.404;9.498;2023-10-13T08:15:49;16.60;37.30
8402;DHT22;4238;48.404;9.498;2023-10-13T08:18:19;16.90;1.00
8402;DHT22;4238;48.404;9.498;2023-10-13T08:23:29;17.30;99.90
8402;DHT22;4238;48.404;9.498;2023-10-13T08:26:10;17.50;1.00
8402;DHT22;4238;48.404;9.498;2023-10-13T08:28:55;17.80;99.90
8402;DHT22;4238;48.404;9.498;2023-10-13T08:31:22;18.00;99.90
8402;DHT22;4238;48.404;9.498;2023-10-13T08:33:53;18.30;1.00
8402;DHT22;4238;48.404;9.498;2023-10-13T08:36:31;18.50;99.90
8402;DHT22;4238;48.404;9.498;2023-10-13T08:38:58;18.70;2.80
8402;DHT22;4238;48.404;9.498;2023-10-13T08:41:43;19.00;1.00
8402;DHT22;4238;48.404;9.498;2023-10-13T08:44:20;19.30;1.00
8402;DHT22;4238;48.404;9.498;2023-10-13T08:46:59;19.50;99.90
8402;DHT22;4238;48.404;9.498;2023-10-13T08:49:34;19.90;99.90
8402;DHT22;4238;48.404;9.498;2023-10-13T08:52:09;20.00;1.00
8402;DHT22;4238;48.404;9.498;2023-10-13T08:54:54;20.20;1.00
8402;DHT22;4238;48.404;9.498;2023-10-13T08:57:34;20.50;1.00
8402;DHT22;4238;48.404;9.498;2023-10-13T09:00:03;20.70;1.00
8402;DHT22;4238;48.404;9.498;2023-10-13T09:02:44;20.90;99.90
8402;DHT22;4238;48.404;9.498;2023-10-13T09:05:47;21.20;99.90
8402;DHT22;4238;48.404;9.498;2023-10-13T09:08:27;21.40;99.90
8402;DHT22;4238;48.404;9.498;2023-10-13T09:11:02;21.70;99.90
8402;DHT22;4238;48.404;9.498;2023-10-13T09:13:36;22.00;70.90
8402;DHT22;4238;48.404;9.498;2023-10-13T09:16:10;22.20;1.00
8402;DHT22;4238;48.404;9.498;2023-10-13T09:18:42;22.50;1.00
8402;DHT22;4238;48.404;9.498;2023-10-13T09:21:15;22.80;1.00
8402;DHT22;4238;48.404;9.498;2023-10-13T09:24:12;23.00;1.00
8402;DHT22;4238;48.404;9.498;2023-10-13T09:26:53;23.20;1.00
8402;DHT22;4238;48.404;9.498;2023-10-13T09:29:21;23.30;1.00
8402;DHT22;4238;48.404;9.498;2023-10-13T09:31:59;23.50;1.00
8402;DHT22;4238;48.404;9.498;2023-10-13T09:34:26;23.50;1.00
8402;DHT22;4238;48.404;9.498;2023-10-13T09:36:57;23.70;1.00
8402;DHT22;4238;48.404;9.498;2023-10-13T09:39:26;23.70;1.00
8402;DHT22;4238;48.404;9.498;2023-10-13T09:42:00;23.80;1.00
8402;DHT22;4238;48.404;9.498;2023-10-13T09:44:26;23.90;1.00
8402;DHT22;4238;48.404;9.498;2023-10-13T09:46:59;24.20;1.00
8402;DHT22;4238;48.404;9.498;2023-10-13T09:49:36;24.40;99.90
8402;DHT22;4238;48.404;9.498;2023-10-13T09:52:15;24.60;99.90
8402;DHT22;4238;48.404;9.498;2023-10-13T09:54:51;24.90;99.90
8402;DHT22;4238;48.404;9.498;2023-10-13T09:57:28;24.80;99.90
8402;DHT22;4238;48.404;9.498;2023-10-13T10:00:06;25.00;99.90
8402;DHT22;4238;48.404;9.498;2023-10-13T10:02:53;24.80;99.90
8402;DHT22;4238;48.404;9.498;2023-10-13T10:05:24;25.30;99.90
8402;DHT22;4238;48.404;9.498;2023-10-13T10:07:57;25.30;99.90
8402;DHT22;4238;48.404;9.498;2023-10-13T10:13:15;25.90;99.90
8402;DHT22;4238;48.404;9.498;2023-10-13T10:15:47;25.80;99.90
8402;DHT22;4238;48.404;9.498;2023-10-13T10:18:19;25.80;99.90
8402;DHT22;4238;48.404;9.498;2023-10-13T10:20:48;25.60;99.90
8402;DHT22;4238;48.404;9.498;2023-10-13T10:23:28;25.70;99.90
8402;DHT22;4238;48.404;9.498;2023-10-13T10:26:09;25.90;99.90
8402;DHT22;4238;48.404;9.498;2023-10-13T10:28:37;26.10;99.90
8402;DHT22;4238;48.404;9.498;2023-10-13T10:31:07;26.20;99.90
8402;DHT22;4238;48.404;9.498;2023-10-13T10:33:38;26.30;99.90
8402;DHT22;4238;48.404;9.498;2023-10-13T10:36:05;26.60;99.90
8402;DHT22;4238;48.404;9.498;2023-10-13T10:38:34;26.70;99.90
8402;DHT22;4238;48.404;9.498;2023-10-13T10:41:05;26.90;99.90
8402;DHT22;4238;48.404;9.498;2023-10-13T10:43:36;27.10;99.90
8402;DHT22;4238;48.404;9.498;2023-10-13T10:46:12;26.80;99.90
8402;DHT22;4238;48.404;9.498;2023-10-13T10:48:39;26.60;99.90
8402;DHT22;4238;48.404;9.498;2023-10-13T10:51:09;26.90;99.90
8402;DHT22;4238;48.404;9.498;2023-10-13T10:53:48;26.90;99.90
8402;DHT22;4238;48.404;9.498;2023-10-13T10:56:17;26.70;99.90
8402;DHT22;4238;48.404;9.498;2023-10-13T10:58:49;26.60;99.90
8402;DHT22;4238;48.404;9.498;2023-10-13T11:01:20;26.40;99.90
8402;DHT22;4238;48.404;9.498;2023-10-13T11:03:54;26.20;99.90
8402;DHT22;4238;48.404;9.498;2023-10-13T11:06:24;26.10;99.90
8402;DHT22;4238;48.404;9.498;2023-10-13T11:09:02;26.00;99.90
8402;DHT22;4238;48.404;9.498;2023-10-13T11:11:32;25.80;99.90
8402;DHT22;4238;48.404;9.498;2023-10-13T11:14:01;25.80;99.90
8402;DHT22;4238;48.404;9.498;2023-10-13T11:16:46;25.80;99.90
8402;DHT22;4238;48.404;9.498;2023-10-13T11:19:17;25.80;99.90
8402;DHT22;4238;48.404;9.498;2023-10-13T11:21:51;25.70;99.90
8402;DHT22;4238;48.404;9.498;2023-10-13T11:24:20;25.90;99.90
8402;DHT22;4238;48.404;9.498;2023-10-13T11:26:48;26.00;99.90
8402;DHT22;4238;48.404;9.498;2023-10-13T11:29:16;26.00;99.90
8402;DHT22;4238;48.404;9.498;2023-10-13T11:31:45;26.10;99.90
8402;DHT22;4238;48.404;9.498;2023-10-13T11:34:19;26.30;99.90
8402;DHT22;4238;48.404;9.498;2023-10-13T11:36:46;26.30;99.90
8402;DHT22;4238;48.404;9.498;2023-10-13T11:39:13;26.20;99.90
8402;DHT22;4238;48.404;9.498;2023-10-13T11:41:45;26.70;99.90
8402;DHT22;4238;48.404;9.498;2023-10-13T11:44:20;27.30;99.90
8402;DHT22;4238;48.404;9.498;2023-10-13T11:47:08;27.50;99.90
8402;DHT22;4238;48.404;9.498;2023-10-13T11:49:58;27.90;99.90
8402;DHT22;4238;48.404;9.498;2023-10-13T11:52:25;28.10;99.90
8402;DHT22;4238;48.404;9.498;2023-10-13T11:54:54;27.80;99.90
8402;DHT22;4238;48.404;9.498;2023-10-13T11:57:23;28.00;99.90
8402;DHT22;4238;48.404;9.498;2023-10-13T11:59:50;28.00;99.90
8402;DHT22;4238;48.404;9.498;2023-10-13T12:02:41;28.10;99.90
8402;DHT22;4238;48.404;9.498;2023-10-13T12:05:31;28.20;99.90
8402;DHT22;4238;48.404;9.498;2023-10-13T12:08:14;28.20;99.90
8402;DHT22;4238;48.404;9.498;2023-10-13T12:10:47;28.40;99.90
8402;DHT22;4238;48.404;9.498;2023-10-13T12:13:26;28.20;99.90
8402;DHT22;4238;48.404;9.498;2023-10-13T12:15:53;28.10;99.90
8402;DHT22;4238;48.404;9.498;2023-10-13T12:18:22;28.00;99.90
8402;DHT22;4238;48.404;9.498;2023-10-13T12:20:49;27.90;99.90
8402;DHT22;4238;48.404;9.498;2023-10-13T12:23:16;27.90;99.90
8402;DHT22;4238;48.404;9.498;2023-10-13T12:25:45;28.00;99.90
8402;DHT22;4238;48.404;9.498;2023-10-13T12:28:23;28.20;99.90
8402;DHT22;4238;48.404;9.498;2023-10-13T12:30:56;28.20;99.90
8402;DHT22;4238;48.404;9.498;2023-10-13T12:33:35;28.30;99.90
8402;DHT22;4238;48.404;9.498;2023-10-13T12:36:06;28.40;99.90
8402;DHT22;4238;48.404;9.498;2023-10-13T12:38:35;28.50;99.90
8402;DHT22;4238;48.404;9.498;2023-10-13T12:41:38;28.10;99.90
8402;DHT22;4238;48.404;9.498;2023-10-13T12:44:22;27.60;99.90
8402;DHT22;4238;48.404;9.498;2023-10-13T12:47:08;27.70;99.90
8402;DHT22;4238;48.404;9.498;2023-10-13T12:49:52;28.00;99.90
8402;DHT22;4238;48.404;9.498;2023-10-13T12:52:25;28.10;99.90
8402;DHT22;4238;48.404;9.498;2023-10-13T12:54:53;28.20;99.90
8402;DHT22;4238;48.404;9.498;2023-10-13T12:57:33;28.20;99.90
8402;DHT22;4238;48.404;9.498;2023-10-13T13:00:00;28.20;99.90
8402;DHT22;4238;48.404;9.498;2023-10-13T13:02:43;28.00;99.90
8402;DHT22;4238;48.404;9.498;2023-10-13T13:05:10;27.80;99.90
8402;DHT22;4238;48.404;9.498;2023-10-13T13:07:38;27.80;99.90
8402;DHT22;4238;48.404;9.498;2023-10-13T13:10:12;28.10;99.90
8402;DHT22;4238;48.404;9.498;2023-10-13T13:12:39;27.70;99.90
8402;DHT22;4238;48.404;9.498;2023-10-13T13:15:07;27.80;99.90
8402;DHT22;4238;48.404;9.498;2023-10-13T13:17:35;28.00;99.90
8402;DHT22;4238;48.404;9.498;2023-10-13T13:20:06;28.00;99.90
8402;DHT22;4238;48.404;9.498;2023-10-13T13:22:39;28.00;99.90
8402;DHT22;4238;48.404;9.498;2023-10-13T13:25:06;28.00;99.90
8402;DHT22;4238;48.404;9.498;2023-10-13T13:27:34;27.90;99.90
8402;DHT22;4238;48.404;9.498;2023-10-13T13:30:02;27.90;99.90
8402;DHT22;4238;48.404;9.498;2023-10-13T13:32:37;27.90;99.90
8402;DHT22;4238;48.404;9.498;2023-10-13T13:35:08;27.90;99.90
8402;DHT22;4238;48.404;9.498;2023-10-13T13:37:39;27.90;99.90
8402;DHT22;4238;48.404;9.498;2023-10-13T13:40:10;27.70;99.90
8402;DHT22;4238;48.404;9.498;2023-10-13T13:42:41;27.60;99.90
8402;DHT22;4238;48.404;9.498;2023-10-13T13:45:11;27.50;99.90
8402;DHT22;4238;48.404;9.498;2023-10-13T13:47:47;27.30;99.90
8402;DHT22;4238;48.404;9.498;2023-10-13T13:50:20;27.10;99.90
8402;DHT22;4238;48.404;9.498;2023-10-13T13:52:51;27.10;99.90
8402;DHT22;4238;48.404;9.498;2023-10-13T13:55:19;27.20;99.90
8402;DHT22;4238;48.404;9.498;2023-10-13T13:57:46;27.20;99.90
8402;DHT22;4238;48.404;9.498;2023-10-13T14:00:16;27.10;99.90
8402;DHT22;4238;48.404;9.498;2023-10-13T14:02:48;27.00;99.90
8402;DHT22;4238;48.404;9.498;2023-10-13T14:05:15;26.90;99.90
8402;DHT22;4238;48.404;9.498;2023-10-13T14:07:44;26.70;99.90
8402;DHT22;4238;48.404;9.498;2023-10-13T14:10:16;26.80;99.90
8402;DHT22;4238;48.404;9.498;2023-10-13T14:12:57;26.70;99.90
8402;DHT22;4238;48.404;9.498;2023-10-13T14:15:32;26.40;99.90
8402;DHT22;4238;48.404;9.498;2023-10-13T14:18:06;26.50;99.90
8402;DHT22;4238;48.404;9.498;2023-10-13T14:20:38;26.00;99.90
8402;DHT22;4238;48.404;9.498;2023-10-13T14:23:07;26.10;99.90
8402;DHT22;4238;48.404;9.498;2023-10-13T14:25:37;25.60;99.90
8402;DHT22;4238;48.404;9.498;2023-10-13T14:28:05;25.60;99.90
8402;DHT22;4238;48.404;9.498;2023-10-13T14:30:32;25.60;99.90
8402;DHT22;4238;48.404;9.498;2023-10-13T14:32:59;25.70;99.90
8402;DHT22;4238;48.404;9.498;2023-10-13T14:35:26;25.60;99.90
8402;DHT22;4238;48.404;9.498;2023-10-13T14:37:53;25.70;99.90
8402;DHT22;4238;48.404;9.498;2023-10-13T14:40:21;25.70;99.90
8402;DHT22;4238;48.404;9.498;2023-10-13T14:42:48;25.70;99.90
8402;DHT22;4238;48.404;9.498;2023-10-13T14:45:15;25.50;99.90
8402;DHT22;4238;48.404;9.498;2023-10-13T14:47:43;25.50;99.90
8402;DHT22;4238;48.404;9.498;2023-10-13T14:50:10;25.50;99.90
8402;DHT22;4238;48.404;9.498;2023-10-13T14:52:45;25.50;99.90
8402;DHT22;4238;48.404;9.498;2023-10-13T14:55:13;25.50;99.90
8402;DHT22;4238;48.404;9.498;2023-10-13T14:57:47;25.30;99.90
8402;DHT22;4238;48.404;9.498;2023-10-13T15:00:16;25.10;99.90
8402;DHT22;4238;48.404;9.498;2023-10-13T15:02:50;25.00;99.90
8402;DHT22;4238;48.404;9.498;2023-10-13T15:05:18;24.90;99.90
8402;DHT22;4238;48.404;9.498;2023-10-13T15:07:45;24.70;99.90
8402;DHT22;4238;48.404;9.498;2023-10-13T15:10:13;24.70;99.90
8402;DHT22;4238;48.404;9.498;2023-10-13T15:12:41;24.70;99.90
8402;DHT22;4238;48.404;9.498;2023-10-13T15:15:11;24.60;99.90
8402;DHT22;4238;48.404;9.498;2023-10-13T15:17:42;24.40;99.90
8402;DHT22;4238;48.404;9.498;2023-10-13T15:20:10;24.40;99.90
8402;DHT22;4238;48.404;9.498;2023-10-13T15:22:42;24.30;99.90
8402;DHT22;4238;48.404;9.498;2023-10-13T15:25:08;24.10;99.90
8402;DHT22;4238;48.404;9.498;2023-10-13T15:27:43;24.10;99.90
8402;DHT22;4238;48.404;9.498;2023-10-13T15:30:17;24.00;99.90
8402;DHT22;4238;48.404;9.498;2023-10-13T15:32:49;23.90;99.90
8402;DHT22;4238;48.404;9.498;2023-10-13T15:35:16;23.80;99.90
8402;DHT22;4238;48.404;9.498;2023-10-13T15:37:43;23.60;99.90
8402;DHT22;4238;48.404;9.498;2023-10-13T15:40:13;23.60;99.90
8402;DHT22;4238;48.404;9.498;2023-10-13T15:42:41;23.50;99.90
8402;DHT22;4238;48.404;9.498;2023-10-13T15:45:08;23.50;99.90
8402;DHT22;4238;48.404;9.498;2023-10-13T15:47:44;23.50;99.90
8402;DHT22;4238;48.404;9.498;2023-10-13T15:50:13;23.40;99.90
8402;DHT22;4238;48.404;9.498;2023-10-13T15:52:44;23.40;99.90
8402;DHT22;4238;48.404;9.498;2023-10-13T15:55:13;23.20;99.90
8402;DHT22;4238;48.404;9.498;2023-10-13T15:57:40;23.10;99.90
8402;DHT22;4238;48.404;9.498;2023-10-13T16:00:09;23.00;99.90
8402;DHT22;4238;48.404;9.498;2023-10-13T16:02:51;22.90;99.90
8402;DHT22;4238;48.404;9.498;2023-10-13T16:05:20;22.70;99.90
8402;DHT22;4238;48.404;9.498;2023-10-13T16:07:50;22.60;99.90
8402;DHT22;4238;48.404;9.498;2023-10-13T16:10:17;22.50;99.90
8402;DHT22;4238;48.404;9.498;2023-10-13T16:12:44;22.30;99.90
8402;DHT22;4238;48.404;9.498;2023-10-13T16:15:11;22.20;99.90
8402;DHT22;4238;48.404;9.498;2023-10-13T16:17:40;22.00;99.90
8402;DHT22;4238;48.404;9.498;2023-10-13T16:20:09;21.90;99.90
8402;DHT22;4238;48.404;9.498;2023-10-13T16:22:45;21.80;99.90
8402;DHT22;4238;48.404;9.498;2023-10-13T16:25:14;21.60;99.90
8402;DHT22;4238;48.404;9.498;2023-10-13T16:27:42;21.50;99.90
8402;DHT22;4238;48.404;9.498;2023-10-13T16:30:11;21.40;99.90
8402;DHT22;4238;48.404;9.498;2023-10-13T16:32:41;21.20;99.90
8402;DHT22;4238;48.404;9.498;2023-10-13T16:35:13;20.90;99.90
8402;DHT22;4238;48.404;9.498;2023-10-13T16:37:43;20.60;99.90
8402;DHT22;4238;48.404;9.498;2023-10-13T16:40:14;20.30;99.90
8402;DHT22;4238;48.404;9.498;2023-10-13T16:42:42;20.10;99.90
8402;DHT22;4238;48.404;9.498;2023-10-13T16:45:09;20.10;99.90
8402;DHT22;4238;48.404;9.498;2023-10-13T16:47:42;20.10;99.90
8402;DHT22;4238;48.404;9.498;2023-10-13T16:50:09;20.00;99.90
8402;DHT22;4238;48.404;9.498;2023-10-13T16:52:38;19.90;99.90
8402;DHT22;4238;48.404;9.498;2023-10-13T16:55:07;20.00;99.90
8402;DHT22;4238;48.404;9.498;2023-10-13T16:57:34;19.90;99.90
8402;DHT22;4238;48.404;9.498;2023-10-13T17:00:02;19.90;99.90
8402;DHT22;4238;48.404;9.498;2023-10-13T17:02:32;19.90;99.90
8402;DHT22;4238;48.404;9.498;2023-10-13T17:05:00;19.80;99.90
8402;DHT22;4238;48.404;9.498;2023-10-13T17:07:28;19.70;99.90
8402;DHT22;4238;48.404;9.498;2023-10-13T17:09:56;19.60;99.90
8402;DHT22;4238;48.404;9.498;2023-10-13T17:12:23;19.60;99.90
8402;DHT22;4238;48.404;9.498;2023-10-13T17:14:52;19.50;99.90
8402;DHT22;4238;48.404;9.498;2023-10-13T17:17:21;19.20;99.90
8402;DHT22;4238;48.404;9.498;2023-10-13T17:19:47;19.00;99.90
8402;DHT22;4238;48.404;9.498;2023-10-13T17:22:15;19.00;99.90
8402;DHT22;4238;48.404;9.498;2023-10-13T17:24:42;19.10;99.90
8402;DHT22;4238;48.404;9.498;2023-10-13T17:27:11;19.00;99.90
8402;DHT22;4238;48.404;9.498;2023-10-13T17:29:37;19.00;99.90
8402;DHT22;4238;48.404;9.498;2023-10-13T17:32:06;18.90;99.90
8402;DHT22;4238;48.404;9.498;2023-10-13T17:34:36;18.90;99.90
8402;DHT22;4238;48.404;9.498;2023-10-13T17:37:03;18.90;99.90
8402;DHT22;4238;48.404;9.498;2023-10-13T17:39:29;19.00;99.90
8402;DHT22;4238;48.404;9.498;2023-10-13T17:41:57;19.00;99.90
8402;DHT22;4238;48.404;9.498;2023-10-13T17:44:27;18.90;1.00
8402;DHT22;4238;48.404;9.498;2023-10-13T17:46:54;18.80;1.00
8402;DHT22;4238;48.404;9.498;2023-10-13T17:49:21;18.70;1.00
8402;DHT22;4238;48.404;9.498;2023-10-13T17:51:48;18.60;1.00
8402;DHT22;4238;48.404;9.498;2023-10-13T17:54:15;18.50;1.00
8402;DHT22;4238;48.404;9.498;2023-10-13T17:56:41;18.40;1.00
8402;DHT22;4238;48.404;9.498;2023-10-13T17:59:08;18.40;1.00
8402;DHT22;4238;48.404;9.498;2023-10-13T18:01:39;18.40;1.00
8402;DHT22;4238;48.404;9.498;2023-10-13T18:04:06;18.40;1.00
8402;DHT22;4238;48.404;9.498;2023-10-13T18:06:35;18.30;1.00
8402;DHT22;4238;48.404;9.498;2023-10-13T18:09:03;18.30;1.00
8402;DHT22;4238;48.404;9.498;2023-10-13T18:11:31;18.20;1.00
8402;DHT22;4238;48.404;9.498;2023-10-13T18:13:58;18.00;1.00
8402;DHT22;4238;48.404;9.498;2023-10-13T18:16:25;18.00;1.00
8402;DHT22;4238;48.404;9.498;2023-10-13T18:18:54;18.00;1.00
8402;DHT22;4238;48.404;9.498;2023-10-13T18:21:22;18.00;1.00
8402;DHT22;4238;48.404;9.498;2023-10-13T18:23:50;18.00;1.00
8402;DHT22;4238;48.404;9.498;2023-10-13T18:26:17;18.10;1.00
8402;DHT22;4238;48.404;9.498;2023-10-13T18:28:45;18.20;1.00
8402;DHT22;4238;48.404;9.498;2023-10-13T18:31:12;18.30;1.00
8402;DHT22;4238;48.404;9.498;2023-10-13T18:33:41;18.40;1.00
8402;DHT22;4238;48.404;9.498;2023-10-13T18:36:13;18.50;1.00
8402;DHT22;4238;48.404;9.498;2023-10-13T18:38:41;18.50;1.00
8402;DHT22;4238;48.404;9.498;2023-10-13T18:41:08;18.50;1.00
8402;DHT22;4238;48.404;9.498;2023-10-13T18:43:37;18.60;1.00
8402;DHT22;4238;48.404;9.498;2023-10-13T18:46:04;18.60;1.00
8402;DHT22;4238;48.404;9.498;2023-10-13T18:48:35;18.60;1.00
8402;DHT22;4238;48.404;9.498;2023-10-13T18:51:04;18.60;1.00
8402;DHT22;4238;48.404;9.498;2023-10-13T18:53:33;18.60;1.00
8402;DHT22;4238;48.404;9.498;2023-10-13T18:56:07;18.60;1.00
8402;DHT22;4238;48.404;9.498;2023-10-13T18:58:37;18.60;1.00
8402;DHT22;4238;48.404;9.498;2023-10-13T19:01:09;18.60;1.00
8402;DHT22;4238;48.404;9.498;2023-10-13T19:03:38;18.60;1.00
8402;DHT22;4238;48.404;9.498;2023-10-13T19:06:05;18.50;1.00
8402;DHT22;4238;48.404;9.498;2023-10-13T19:08:33;18.40;1.00
8402;DHT22;4238;48.404;9.498;2023-10-13T19:11:03;18.40;1.00
8402;DHT22;4238;48.404;9.498;2023-10-13T19:13:33;18.40;1.00
8402;DHT22;4238;48.404;9.498;2023-10-13T19:16:04;18.30;1.00
8402;DHT22;4238;48.404;9.498;2023-10-13T19:18:32;18.40;1.00
8402;DHT22;4238;48.404;9.498;2023-10-13T19:21:02;18.30;1.00
8402;DHT22;4238;48.404;9.498;2023-10-13T19:23:30;18.30;1.00
8402;DHT22;4238;48.404;9.498;2023-10-13T19:25:58;18.30;1.00
8402;DHT22;4238;48.404;9.498;2023-10-13T19:28:25;18.40;1.00
8402;DHT22;4238;48.404;9.498;2023-10-13T19:30:53;18.30;1.00
8402;DHT22;4238;48.404;9.498;2023-10-13T19:33:20;18.30;1.00
8402;DHT22;4238;48.404;9.498;2023-10-13T19:35:47;18.20;1.00
8402;DHT22;4238;48.404;9.498;2023-10-13T19:38:16;18.30;1.00
8402;DHT22;4238;48.404;9.498;2023-10-13T19:40:43;18.20;1.00
8402;DHT22;4238;48.404;9.498;2023-10-13T19:43:11;18.20;1.00
8402;DHT22;4238;48.404;9.498;2023-10-13T19:45:38;18.20;1.00
8402;DHT22;4238;48.404;9.498;2023-10-13T19:48:06;18.20;1.00
8402;DHT22;4238;48.404;9.498;2023-10-13T19:50:35;18.20;1.00
8402;DHT22;4238;48.404;9.498;2023-10-13T19:53:04;18.10;1.00
8402;DHT22;4238;48.404;9.498;2023-10-13T19:55:39;18.10;1.00
8402;DHT22;4238;48.404;9.498;2023-10-13T19:58:07;18.10;1.00
8402;DHT22;4238;48.404;9.498;2023-10-13T20:00:35;18.00;1.00
8402;DHT22;4238;48.404;9.498;2023-10-13T20:03:03;17.90;1.00
8402;DHT22;4238;48.404;9.498;2023-10-13T20:05:34;17.90;1.00
8402;DHT22;4238;48.404;9.498;2023-10-13T20:08:01;17.80;1.00
8402;DHT22;4238;48.404;9.498;2023-10-13T20:10:30;17.80;1.00
8402;DHT22;4238;48.404;9.498;2023-10-13T20:13:02;17.80;1.00
8402;DHT22;4238;48.404;9.498;2023-10-13T20:15:29;17.80;1.00
8402;DHT22;4238;48.404;9.498;2023-10-13T20:17:58;17.70;1.00
8402;DHT22;4238;48.404;9.498;2023-10-13T20:20:25;17.70;1.00
8402;DHT22;4238;48.404;9.498;2023-10-13T20:22:53;17.60;1.00
8402;DHT22;4238;48.404;9.498;2023-10-13T20:25:20;17.60;1.00
8402;DHT22;4238;48.404;9.498;2023-10-13T20:27:49;17.50;1.00
8402;DHT22;4238;48.404;9.498;2023-10-13T20:30:17;17.40;1.00
8402;DHT22;4238;48.404;9.498;2023-10-13T20:32:47;17.40;1.00
8402;DHT22;4238;48.404;9.498;2023-10-13T20:35:15;17.40;1.00
8402;DHT22;4238;48.404;9.498;2023-10-13T20:37:47;17.40;1.00
8402;DHT22;4238;48.404;9.498;2023-10-13T20:40:14;17.40;1.00
8402;DHT22;4238;48.404;9.498;2023-10-13T20:42:50;17.30;1.00
8402;DHT22;4238;48.404;9.498;2023-10-13T20:45:18;17.30;1.00
8402;DHT22;4238;48.404;9.498;2023-10-13T20:47:49;17.20;1.00
8402;DHT22;4238;48.404;9.498;2023-10-13T20:50:21;17.20;1.00